sensor_id;sensor_type;location;lat;lon;timestamp;P1;durP1;ratioP1;P2;durP2;ratioP2
18649;SDS011;9454;53.516;10.478;2022-12-29T00:01:57;1.13;;;0.80;;
18649;SDS011;9454;53.516;10.478;2022-12-29T00:05:01;2.72;;;1.00;;
18649;SDS011;9454;53.516;10.478;2022-12-29T00:08:05;1.60;;;1.02;;
18649;SDS011;9454;53.516;10.478;2022-12-29T00:11:09;8.18;;;0.90;;
18649;SDS011;9454;53.516;10.478;2022-12-29T00:14:14;1.50;;;0.95;;
18649;SDS011;9454;53.516;10.478;2022-12-29T00:17:35;2.47;;;0.85;;
18649;SDS011;9454;53.516;10.478;2022-12-29T00:20:39;1.30;;;0.90;;
18649;SDS011;9454;53.516;10.478;2022-12-29T00:24:01;1.35;;;1.00;;
18649;SDS011;9454;53.516;10.478;2022-12-29T00:27:25;0.75;;;0.75;;
18649;SDS011;9454;53.516;10.478;2022-12-29T00:30:47;3.80;;;0.75;;
18649;SDS011;9454;53.516;10.478;2022-12-29T00:34:10;1.52;;;1.00;;
18649;SDS011;9454;53.516;10.478;2022-12-29T00:37:32;3.03;;;0.93;;
18649;SDS011;9454;53.516;10.478;2022-12-29T00:40:49;1.58;;;1.08;;
18649;SDS011;9454;53.516;10.478;2022-12-29T00:44:11;1.27;;;1.00;;
18649;SDS011;9454;53.516;10.478;2022-12-29T00:47:16;6.15;;;1.92;;
18649;SDS011;9454;53.516;10.478;2022-12-29T00:50:22;5.03;;;1.20;;
18649;SDS011;9454;53.516;10.478;2022-12-29T00:53:24;4.50;;;1.08;;
18649;SDS011;9454;53.516;10.478;2022-12-29T00:56:28;2.92;;;1.20;;
18649;SDS011;9454;53.516;10.478;2022-12-29T00:59:32;1.00;;;0.90;;
18649;SDS011;9454;53.516;10.478;2022-12-29T01:02:39;2.20;;;1.00;;
18649;SDS011;9454;53.516;10.478;2022-12-29T01:05:43;1.88;;;0.93;;
18649;SDS011;9454;53.516;10.478;2022-12-29T01:08:47;1.35;;;0.88;;
18649;SDS011;9454;53.516;10.478;2022-12-29T01:12:10;1.90;;;0.93;;
18649;SDS011;9454;53.516;10.478;2022-12-29T01:15:18;1.40;;;0.90;;
18649;SDS011;9454;53.516;10.478;2022-12-29T01:18:24;2.78;;;1.10;;
18649;SDS011;9454;53.516;10.478;2022-12-29T01:21:29;1.00;;;0.88;;
18649;SDS011;9454;53.516;10.478;2022-12-29T01:24:34;0.98;;;0.82;;
18649;SDS011;9454;53.516;10.478;2022-12-29T01:27:38;0.80;;;0.80;;
18649;SDS011;9454;53.516;10.478;2022-12-29T01:30:41;0.98;;;0.70;;
18649;SDS011;9454;53.516;10.478;2022-12-29T01:33:48;0.80;;;0.77;;
18649;SDS011;9454;53.516;10.478;2022-12-29T01:36:52;2.70;;;0.90;;
18649;SDS011;9454;53.516;10.478;2022-12-29T01:39:59;1.80;;;1.13;;
18649;SDS011;9454;53.516;10.478;2022-12-29T01:43:03;1.15;;;0.93;;
18649;SDS011;9454;53.516;10.478;2022-12-29T01:46:12;0.80;;;0.80;;
18649;SDS011;9454;53.516;10.478;2022-12-29T01:49:21;1.70;;;1.00;;
18649;SDS011;9454;53.516;10.478;2022-12-29T01:52:26;0.70;;;0.70;;
18649;SDS011;9454;53.516;10.478;2022-12-29T01:55:33;1.30;;;0.82;;
18649;SDS011;9454;53.516;10.478;2022-12-29T01:58:38;1.40;;;0.93;;
18649;SDS011;9454;53.516;10.478;2022-12-29T02:01:43;1.63;;;0.85;;
18649;SDS011;9454;53.516;10.478;2022-12-29T02:04:48;1.35;;;0.90;;
18649;SDS011;9454;53.516;10.478;2022-12-29T02:07:52;2.05;;;0.88;;
18649;SDS011;9454;53.516;10.478;2022-12-29T02:10:56;1.00;;;0.90;;
18649;SDS011;9454;53.516;10.478;2022-12-29T02:14:01;1.45;;;0.98;;
18649;SDS011;9454;53.516;10.478;2022-12-29T02:17:06;1.23;;;1.02;;
18649;SDS011;9454;53.516;10.478;2022-12-29T02:20:31;1.85;;;0.90;;
18649;SDS011;9454;53.516;10.478;2022-12-29T02:27:17;1.95;;;0.70;;
18649;SDS011;9454;53.516;10.478;2022-12-29T02:30:34;2.67;;;0.90;;
18649;SDS011;9454;53.516;10.478;2022-12-29T02:33:44;1.42;;;0.90;;
18649;SDS011;9454;53.516;10.478;2022-12-29T02:36:59;2.55;;;1.02;;
18649;SDS011;9454;53.516;10.478;2022-12-29T02:40:06;1.48;;;0.90;;
18649;SDS011;9454;53.516;10.478;2022-12-29T02:43:13;1.25;;;1.00;;
18649;SDS011;9454;53.516;10.478;2022-12-29T02:46:21;2.13;;;0.75;;
18649;SDS011;9454;53.516;10.478;2022-12-29T02:49:30;1.30;;;0.80;;
18649;SDS011;9454;53.516;10.478;2022-12-29T02:52:37;0.60;;;0.60;;
18649;SDS011;9454;53.516;10.478;2022-12-29T02:55:47;5.10;;;0.90;;
18649;SDS011;9454;53.516;10.478;2022-12-29T02:58:50;0.65;;;0.65;;
18649;SDS011;9454;53.516;10.478;2022-12-29T03:02:03;1.75;;;1.00;;
18649;SDS011;9454;53.516;10.478;2022-12-29T03:05:29;0.73;;;0.68;;
18649;SDS011;9454;53.516;10.478;2022-12-29T03:08:38;2.95;;;0.90;;
18649;SDS011;9454;53.516;10.478;2022-12-29T03:11:45;1.55;;;0.80;;
18649;SDS011;9454;53.516;10.478;2022-12-29T03:15:10;0.60;;;0.60;;
18649;SDS011;9454;53.516;10.478;2022-12-29T03:18:37;0.68;;;0.68;;
18649;SDS011;9454;53.516;10.478;2022-12-29T03:21:43;3.08;;;0.77;;
18649;SDS011;9454;53.516;10.478;2022-12-29T03:25:13;0.60;;;0.60;;
18649;SDS011;9454;53.516;10.478;2022-12-29T03:28:21;0.80;;;0.80;;
18649;SDS011;9454;53.516;10.478;2022-12-29T03:31:25;0.70;;;0.70;;
18649;SDS011;9454;53.516;10.478;2022-12-29T03:34:30;1.20;;;0.63;;
18649;SDS011;9454;53.516;10.478;2022-12-29T03:37:35;3.30;;;1.00;;
18649;SDS011;9454;53.516;10.478;2022-12-29T03:40:42;1.15;;;0.75;;
18649;SDS011;9454;53.516;10.478;2022-12-29T03:43:47;0.75;;;0.73;;
18649;SDS011;9454;53.516;10.478;2022-12-29T03:46:52;1.25;;;0.80;;
18649;SDS011;9454;53.516;10.478;2022-12-29T03:49:56;2.08;;;1.10;;
18649;SDS011;9454;53.516;10.478;2022-12-29T03:53:00;1.55;;;0.77;;
18649;SDS011;9454;53.516;10.478;2022-12-29T03:56:05;0.85;;;0.57;;
18649;SDS011;9454;53.516;10.478;2022-12-29T03:59:09;1.10;;;0.60;;
18649;SDS011;9454;53.516;10.478;2022-12-29T04:02:14;1.73;;;0.65;;
18649;SDS011;9454;53.516;10.478;2022-12-29T04:05:21;1.05;;;0.70;;
18649;SDS011;9454;53.516;10.478;2022-12-29T04:08:27;0.63;;;0.60;;
18649;SDS011;9454;53.516;10.478;2022-12-29T04:11:33;0.80;;;0.77;;
18649;SDS011;9454;53.516;10.478;2022-12-29T04:14:37;2.08;;;0.60;;
18649;SDS011;9454;53.516;10.478;2022-12-29T04:17:41;1.05;;;0.65;;
18649;SDS011;9454;53.516;10.478;2022-12-29T04:20:46;1.05;;;0.80;;
18649;SDS011;9454;53.516;10.478;2022-12-29T04:24:04;3.17;;;0.70;;
18649;SDS011;9454;53.516;10.478;2022-12-29T04:27:13;0.90;;;0.52;;
18649;SDS011;9454;53.516;10.478;2022-12-29T04:30:37;1.02;;;0.60;;
18649;SDS011;9454;53.516;10.478;2022-12-29T04:33:51;4.20;;;0.98;;
18649;SDS011;9454;53.516;10.478;2022-12-29T04:36:57;0.82;;;0.63;;
18649;SDS011;9454;53.516;10.478;2022-12-29T04:40:02;0.82;;;0.50;;
18649;SDS011;9454;53.516;10.478;2022-12-29T04:43:07;0.88;;;0.73;;
18649;SDS011;9454;53.516;10.478;2022-12-29T04:46:29;1.90;;;1.40;;
18649;SDS011;9454;53.516;10.478;2022-12-29T04:49:36;0.98;;;0.80;;
18649;SDS011;9454;53.516;10.478;2022-12-29T04:53:16;3.03;;;0.70;;
18649;SDS011;9454;53.516;10.478;2022-12-29T04:56:21;0.77;;;0.60;;
18649;SDS011;9454;53.516;10.478;2022-12-29T04:59:25;2.95;;;0.80;;
18649;SDS011;9454;53.516;10.478;2022-12-29T05:02:32;1.25;;;0.65;;
18649;SDS011;9454;53.516;10.478;2022-12-29T05:05:36;1.80;;;0.70;;
18649;SDS011;9454;53.516;10.478;2022-12-29T05:08:41;1.02;;;0.50;;
18649;SDS011;9454;53.516;10.478;2022-12-29T05:11:45;3.60;;;0.55;;
18649;SDS011;9454;53.516;10.478;2022-12-29T05:14:49;7.13;;;0.70;;
18649;SDS011;9454;53.516;10.478;2022-12-29T05:17:53;0.50;;;0.50;;
18649;SDS011;9454;53.516;10.478;2022-12-29T05:21:00;3.95;;;0.70;;
18649;SDS011;9454;53.516;10.478;2022-12-29T05:24:05;0.50;;;0.50;;
18649;SDS011;9454;53.516;10.478;2022-12-29T05:27:10;1.13;;;0.60;;
18649;SDS011;9454;53.516;10.478;2022-12-29T05:30:32;0.45;;;0.45;;
18649;SDS011;9454;53.516;10.478;2022-12-29T05:33:35;3.03;;;0.68;;
18649;SDS011;9454;53.516;10.478;2022-12-29T05:36:39;0.40;;;0.40;;
18649;SDS011;9454;53.516;10.478;2022-12-29T05:39:47;0.70;;;0.50;;
18649;SDS011;9454;53.516;10.478;2022-12-29T05:42:51;0.88;;;0.57;;
18649;SDS011;9454;53.516;10.478;2022-12-29T05:46:28;0.40;;;0.40;;
18649;SDS011;9454;53.516;10.478;2022-12-29T05:49:40;0.63;;;0.57;;
18649;SDS011;9454;53.516;10.478;2022-12-29T05:52:57;0.80;;;0.70;;
18649;SDS011;9454;53.516;10.478;2022-12-29T05:56:02;1.00;;;0.75;;
18649;SDS011;9454;53.516;10.478;2022-12-29T05:59:07;0.47;;;0.47;;
18649;SDS011;9454;53.516;10.478;2022-12-29T06:02:14;0.93;;;0.60;;
18649;SDS011;9454;53.516;10.478;2022-12-29T06:05:18;2.00;;;0.70;;
18649;SDS011;9454;53.516;10.478;2022-12-29T06:08:24;1.20;;;0.70;;
18649;SDS011;9454;53.516;10.478;2022-12-29T06:11:32;2.47;;;0.60;;
18649;SDS011;9454;53.516;10.478;2022-12-29T06:14:42;0.50;;;0.50;;
18649;SDS011;9454;53.516;10.478;2022-12-29T06:17:50;2.70;;;0.55;;
18649;SDS011;9454;53.516;10.478;2022-12-29T06:21:02;0.47;;;0.47;;
18649;SDS011;9454;53.516;10.478;2022-12-29T06:24:10;0.40;;;0.40;;
18649;SDS011;9454;53.516;10.478;2022-12-29T06:27:17;0.70;;;0.50;;
18649;SDS011;9454;53.516;10.478;2022-12-29T06:30:26;3.08;;;0.60;;
18649;SDS011;9454;53.516;10.478;2022-12-29T06:33:38;2.30;;;0.52;;
18649;SDS011;9454;53.516;10.478;2022-12-29T06:36:50;0.70;;;0.60;;
18649;SDS011;9454;53.516;10.478;2022-12-29T06:39:54;5.43;;;0.60;;
18649;SDS011;9454;53.516;10.478;2022-12-29T06:43:03;1.40;;;0.70;;
18649;SDS011;9454;53.516;10.478;2022-12-29T06:46:28;1.65;;;0.60;;
18649;SDS011;9454;53.516;10.478;2022-12-29T06:49:34;0.47;;;0.47;;
18649;SDS011;9454;53.516;10.478;2022-12-29T06:52:48;0.50;;;0.40;;
18649;SDS011;9454;53.516;10.478;2022-12-29T06:55:52;0.38;;;0.38;;
18649;SDS011;9454;53.516;10.478;2022-12-29T06:59:02;1.58;;;0.60;;
18649;SDS011;9454;53.516;10.478;2022-12-29T07:02:10;0.60;;;0.60;;
18649;SDS011;9454;53.516;10.478;2022-12-29T07:05:16;1.38;;;0.65;;
18649;SDS011;9454;53.516;10.478;2022-12-29T07:08:20;1.63;;;0.70;;
18649;SDS011;9454;53.516;10.478;2022-12-29T07:11:24;1.98;;;0.90;;
18649;SDS011;9454;53.516;10.478;2022-12-29T07:14:35;1.67;;;0.95;;
18649;SDS011;9454;53.516;10.478;2022-12-29T07:17:44;1.40;;;0.88;;
18649;SDS011;9454;53.516;10.478;2022-12-29T07:20:50;2.65;;;1.10;;
18649;SDS011;9454;53.516;10.478;2022-12-29T07:23:59;2.40;;;1.00;;
18649;SDS011;9454;53.516;10.478;2022-12-29T07:27:03;2.78;;;0.90;;
18649;SDS011;9454;53.516;10.478;2022-12-29T07:30:15;1.73;;;0.80;;
18649;SDS011;9454;53.516;10.478;2022-12-29T07:33:19;3.95;;;0.80;;
18649;SDS011;9454;53.516;10.478;2022-12-29T07:36:34;0.47;;;0.47;;
18649;SDS011;9454;53.516;10.478;2022-12-29T07:39:38;1.55;;;0.57;;
18649;SDS011;9454;53.516;10.478;2022-12-29T07:42:42;1.25;;;0.47;;
18649;SDS011;9454;53.516;10.478;2022-12-29T07:45:56;0.43;;;0.43;;
18649;SDS011;9454;53.516;10.478;2022-12-29T07:49:02;0.85;;;0.52;;
18649;SDS011;9454;53.516;10.478;2022-12-29T07:52:07;0.30;;;0.30;;
18649;SDS011;9454;53.516;10.478;2022-12-29T07:55:11;0.60;;;0.50;;
18649;SDS011;9454;53.516;10.478;2022-12-29T07:58:31;0.30;;;0.30;;
18649;SDS011;9454;53.516;10.478;2022-12-29T08:01:50;0.55;;;0.50;;
18649;SDS011;9454;53.516;10.478;2022-12-29T08:05:18;0.40;;;0.40;;
18649;SDS011;9454;53.516;10.478;2022-12-29T08:08:24;0.57;;;0.40;;
18649;SDS011;9454;53.516;10.478;2022-12-29T08:11:29;1.50;;;0.43;;
18649;SDS011;9454;53.516;10.478;2022-12-29T08:14:32;0.50;;;0.40;;
18649;SDS011;9454;53.516;10.478;2022-12-29T08:17:42;0.45;;;0.45;;
18649;SDS011;9454;53.516;10.478;2022-12-29T08:21:06;2.10;;;0.40;;
18649;SDS011;9454;53.516;10.478;2022-12-29T08:24:26;0.40;;;0.40;;
18649;SDS011;9454;53.516;10.478;2022-12-29T08:28:02;0.30;;;0.30;;
18649;SDS011;9454;53.516;10.478;2022-12-29T08:31:21;0.52;;;0.38;;
18649;SDS011;9454;53.516;10.478;2022-12-29T08:37:54;1.33;;;0.60;;
18649;SDS011;9454;53.516;10.478;2022-12-29T08:41:07;2.38;;;0.73;;
18649;SDS011;9454;53.516;10.478;2022-12-29T08:44:18;0.68;;;0.55;;
18649;SDS011;9454;53.516;10.478;2022-12-29T08:47:28;0.60;;;0.50;;
18649;SDS011;9454;53.516;10.478;2022-12-29T08:50:39;1.75;;;0.65;;
18649;SDS011;9454;53.516;10.478;2022-12-29T08:53:51;0.73;;;0.55;;
18649;SDS011;9454;53.516;10.478;2022-12-29T08:57:42;0.50;;;0.45;;
18649;SDS011;9454;53.516;10.478;2022-12-29T09:00:55;0.38;;;0.38;;
18649;SDS011;9454;53.516;10.478;2022-12-29T09:04:06;1.83;;;0.50;;
18649;SDS011;9454;53.516;10.478;2022-12-29T09:07:23;0.45;;;0.40;;
18649;SDS011;9454;53.516;10.478;2022-12-29T09:10:35;5.82;;;2.40;;
18649;SDS011;9454;53.516;10.478;2022-12-29T09:13:45;6.57;;;1.95;;
18649;SDS011;9454;53.516;10.478;2022-12-29T09:16:58;1.90;;;0.95;;
18649;SDS011;9454;53.516;10.478;2022-12-29T09:20:25;8.40;;;0.75;;
18649;SDS011;9454;53.516;10.478;2022-12-29T09:23:35;2.63;;;1.95;;
18649;SDS011;9454;53.516;10.478;2022-12-29T09:26:47;2.22;;;1.55;;
18649;SDS011;9454;53.516;10.478;2022-12-29T09:29:57;0.50;;;0.50;;
18649;SDS011;9454;53.516;10.478;2022-12-29T09:33:07;2.75;;;0.57;;
18649;SDS011;9454;53.516;10.478;2022-12-29T09:36:17;1.02;;;0.77;;
18649;SDS011;9454;53.516;10.478;2022-12-29T09:39:27;0.22;;;0.22;;
18649;SDS011;9454;53.516;10.478;2022-12-29T09:42:39;2.88;;;0.85;;
18649;SDS011;9454;53.516;10.478;2022-12-29T09:45:55;1.55;;;0.68;;
18649;SDS011;9454;53.516;10.478;2022-12-29T09:49:08;1.38;;;0.52;;
18649;SDS011;9454;53.516;10.478;2022-12-29T09:52:47;4.22;;;0.50;;
18649;SDS011;9454;53.516;10.478;2022-12-29T09:55:59;1.15;;;0.60;;
18649;SDS011;9454;53.516;10.478;2022-12-29T09:59:16;3.95;;;0.63;;
18649;SDS011;9454;53.516;10.478;2022-12-29T10:02:31;1.48;;;0.50;;
18649;SDS011;9454;53.516;10.478;2022-12-29T10:05:45;0.47;;;0.45;;
18649;SDS011;9454;53.516;10.478;2022-12-29T10:08:57;4.47;;;0.70;;
18649;SDS011;9454;53.516;10.478;2022-12-29T10:12:12;2.33;;;0.68;;
18649;SDS011;9454;53.516;10.478;2022-12-29T10:15:46;0.40;;;0.40;;
18649;SDS011;9454;53.516;10.478;2022-12-29T10:19:05;1.75;;;0.60;;
18649;SDS011;9454;53.516;10.478;2022-12-29T10:22:22;0.57;;;0.57;;
18649;SDS011;9454;53.516;10.478;2022-12-29T10:25:41;1.52;;;0.55;;
18649;SDS011;9454;53.516;10.478;2022-12-29T10:28:56;0.40;;;0.40;;
18649;SDS011;9454;53.516;10.478;2022-12-29T10:36:40;0.93;;;0.50;;
18649;SDS011;9454;53.516;10.478;2022-12-29T10:39:58;2.33;;;0.75;;
18649;SDS011;9454;53.516;10.478;2022-12-29T10:43:12;2.17;;;0.60;;
18649;SDS011;9454;53.516;10.478;2022-12-29T10:46:40;4.75;;;1.70;;
18649;SDS011;9454;53.516;10.478;2022-12-29T10:50:11;1.67;;;0.75;;
18649;SDS011;9454;53.516;10.478;2022-12-29T10:57:34;1.60;;;0.50;;
18649;SDS011;9454;53.516;10.478;2022-12-29T11:00:41;5.55;;;0.80;;
18649;SDS011;9454;53.516;10.478;2022-12-29T11:03:50;0.82;;;0.60;;
18649;SDS011;9454;53.516;10.478;2022-12-29T11:07:32;1.50;;;0.60;;
18649;SDS011;9454;53.516;10.478;2022-12-29T11:10:58;6.05;;;0.90;;
18649;SDS011;9454;53.516;10.478;2022-12-29T11:14:10;2.45;;;0.60;;
18649;SDS011;9454;53.516;10.478;2022-12-29T11:17:19;2.55;;;0.52;;
18649;SDS011;9454;53.516;10.478;2022-12-29T11:20:31;1.15;;;0.60;;
18649;SDS011;9454;53.516;10.478;2022-12-29T11:23:35;1.13;;;0.60;;
18649;SDS011;9454;53.516;10.478;2022-12-29T11:26:43;5.47;;;0.77;;
18649;SDS011;9454;53.516;10.478;2022-12-29T11:38:23;4.75;;;0.70;;
18649;SDS011;9454;53.516;10.478;2022-12-29T11:50:01;1.13;;;0.57;;
18649;SDS011;9454;53.516;10.478;2022-12-29T11:53:22;2.67;;;0.43;;
18649;SDS011;9454;53.516;10.478;2022-12-29T11:56:38;1.90;;;0.50;;
18649;SDS011;9454;53.516;10.478;2022-12-29T11:59:43;1.65;;;0.60;;
18649;SDS011;9454;53.516;10.478;2022-12-29T12:02:51;5.90;;;0.73;;
18649;SDS011;9454;53.516;10.478;2022-12-29T12:05:58;0.82;;;0.60;;
18649;SDS011;9454;53.516;10.478;2022-12-29T12:13:14;1.05;;;0.50;;
18649;SDS011;9454;53.516;10.478;2022-12-29T12:16:24;2.38;;;0.63;;
18649;SDS011;9454;53.516;10.478;2022-12-29T12:19:40;3.03;;;0.60;;
18649;SDS011;9454;53.516;10.478;2022-12-29T12:22:46;1.73;;;0.70;;
18649;SDS011;9454;53.516;10.478;2022-12-29T12:25:56;5.45;;;0.88;;
18649;SDS011;9454;53.516;10.478;2022-12-29T12:29:08;2.17;;;0.85;;
18649;SDS011;9454;53.516;10.478;2022-12-29T12:32:22;3.40;;;0.57;;
18649;SDS011;9454;53.516;10.478;2022-12-29T12:35:37;3.70;;;0.90;;
18649;SDS011;9454;53.516;10.478;2022-12-29T12:38:45;1.90;;;0.60;;
18649;SDS011;9454;53.516;10.478;2022-12-29T12:42:05;1.17;;;0.57;;
18649;SDS011;9454;53.516;10.478;2022-12-29T12:45:26;5.40;;;0.80;;
18649;SDS011;9454;53.516;10.478;2022-12-29T12:48:41;6.47;;;0.73;;
18649;SDS011;9454;53.516;10.478;2022-12-29T12:51:48;2.00;;;0.70;;
18649;SDS011;9454;53.516;10.478;2022-12-29T12:55:01;2.38;;;0.60;;
18649;SDS011;9454;53.516;10.478;2022-12-29T12:58:12;3.67;;;1.00;;
18649;SDS011;9454;53.516;10.478;2022-12-29T13:01:28;4.63;;;1.30;;
18649;SDS011;9454;53.516;10.478;2022-12-29T13:04:45;3.45;;;0.93;;
18649;SDS011;9454;53.516;10.478;2022-12-29T13:07:57;3.88;;;1.10;;
18649;SDS011;9454;53.516;10.478;2022-12-29T13:11:19;8.70;;;1.40;;
18649;SDS011;9454;53.516;10.478;2022-12-29T13:14:52;1.40;;;0.95;;
18649;SDS011;9454;53.516;10.478;2022-12-29T13:18:22;5.93;;;1.85;;
18649;SDS011;9454;53.516;10.478;2022-12-29T13:21:37;6.38;;;2.70;;
18649;SDS011;9454;53.516;10.478;2022-12-29T13:28:37;5.43;;;1.80;;
18649;SDS011;9454;53.516;10.478;2022-12-29T13:32:26;6.70;;;1.83;;
18649;SDS011;9454;53.516;10.478;2022-12-29T13:36:49;1.95;;;0.80;;
18649;SDS011;9454;53.516;10.478;2022-12-29T13:39:55;6.40;;;0.90;;
18649;SDS011;9454;53.516;10.478;2022-12-29T13:43:00;5.25;;;0.90;;
18649;SDS011;9454;53.516;10.478;2022-12-29T13:46:05;2.90;;;1.08;;
18649;SDS011;9454;53.516;10.478;2022-12-29T13:49:11;2.88;;;1.05;;
18649;SDS011;9454;53.516;10.478;2022-12-29T13:55:37;5.00;;;0.77;;
18649;SDS011;9454;53.516;10.478;2022-12-29T13:58:52;3.15;;;0.77;;
18649;SDS011;9454;53.516;10.478;2022-12-29T14:01:58;4.63;;;0.90;;
18649;SDS011;9454;53.516;10.478;2022-12-29T14:09:49;2.50;;;0.80;;
18649;SDS011;9454;53.516;10.478;2022-12-29T14:13:00;6.15;;;1.88;;
18649;SDS011;9454;53.516;10.478;2022-12-29T14:16:06;1.92;;;0.68;;
18649;SDS011;9454;53.516;10.478;2022-12-29T14:19:28;4.25;;;0.90;;
18649;SDS011;9454;53.516;10.478;2022-12-29T14:22:55;0.63;;;0.63;;
18649;SDS011;9454;53.516;10.478;2022-12-29T14:26:11;5.28;;;0.75;;
18649;SDS011;9454;53.516;10.478;2022-12-29T14:32:43;5.00;;;0.75;;
18649;SDS011;9454;53.516;10.478;2022-12-29T14:36:19;2.17;;;0.77;;
18649;SDS011;9454;53.516;10.478;2022-12-29T14:39:34;2.28;;;0.50;;
18649;SDS011;9454;53.516;10.478;2022-12-29T14:42:38;2.97;;;0.68;;
18649;SDS011;9454;53.516;10.478;2022-12-29T14:45:43;4.65;;;0.70;;
18649;SDS011;9454;53.516;10.478;2022-12-29T14:48:58;2.38;;;0.68;;
18649;SDS011;9454;53.516;10.478;2022-12-29T14:57:05;2.78;;;0.93;;
18649;SDS011;9454;53.516;10.478;2022-12-29T15:00:16;1.35;;;0.70;;
18649;SDS011;9454;53.516;10.478;2022-12-29T15:03:23;2.80;;;0.90;;
18649;SDS011;9454;53.516;10.478;2022-12-29T15:06:31;2.65;;;0.52;;
18649;SDS011;9454;53.516;10.478;2022-12-29T15:09:44;1.17;;;0.50;;
18649;SDS011;9454;53.516;10.478;2022-12-29T15:12:52;1.50;;;0.47;;
18649;SDS011;9454;53.516;10.478;2022-12-29T15:15:56;2.60;;;0.55;;
18649;SDS011;9454;53.516;10.478;2022-12-29T15:19:20;1.42;;;0.47;;
18649;SDS011;9454;53.516;10.478;2022-12-29T15:22:25;3.30;;;0.70;;
18649;SDS011;9454;53.516;10.478;2022-12-29T15:25:46;0.80;;;0.43;;
18649;SDS011;9454;53.516;10.478;2022-12-29T15:28:50;1.10;;;0.63;;
18649;SDS011;9454;53.516;10.478;2022-12-29T15:31:58;1.85;;;0.88;;
18649;SDS011;9454;53.516;10.478;2022-12-29T15:35:09;0.55;;;0.40;;
18649;SDS011;9454;53.516;10.478;2022-12-29T15:38:34;2.60;;;0.40;;
18649;SDS011;9454;53.516;10.478;2022-12-29T15:45:43;0.77;;;0.43;;
18649;SDS011;9454;53.516;10.478;2022-12-29T15:48:53;0.75;;;0.55;;
18649;SDS011;9454;53.516;10.478;2022-12-29T15:55:50;1.60;;;0.73;;
18649;SDS011;9454;53.516;10.478;2022-12-29T15:59:01;4.97;;;0.77;;
18649;SDS011;9454;53.516;10.478;2022-12-29T16:02:07;3.17;;;0.88;;
18649;SDS011;9454;53.516;10.478;2022-12-29T16:05:14;1.92;;;0.70;;
18649;SDS011;9454;53.516;10.478;2022-12-29T16:08:22;4.85;;;0.77;;
18649;SDS011;9454;53.516;10.478;2022-12-29T16:11:38;1.65;;;0.65;;
18649;SDS011;9454;53.516;10.478;2022-12-29T16:14:54;4.30;;;0.80;;
18649;SDS011;9454;53.516;10.478;2022-12-29T16:18:11;2.85;;;0.90;;
18649;SDS011;9454;53.516;10.478;2022-12-29T16:21:31;2.53;;;0.77;;
18649;SDS011;9454;53.516;10.478;2022-12-29T16:25:03;2.45;;;0.80;;
18649;SDS011;9454;53.516;10.478;2022-12-29T16:28:38;10.25;;;1.25;;
18649;SDS011;9454;53.516;10.478;2022-12-29T16:31:51;3.17;;;0.93;;
18649;SDS011;9454;53.516;10.478;2022-12-29T16:35:12;4.97;;;1.40;;
18649;SDS011;9454;53.516;10.478;2022-12-29T16:38:19;6.35;;;2.13;;
18649;SDS011;9454;53.516;10.478;2022-12-29T16:41:30;2.63;;;1.40;;
18649;SDS011;9454;53.516;10.478;2022-12-29T16:44:36;5.07;;;1.27;;
18649;SDS011;9454;53.516;10.478;2022-12-29T16:47:46;2.22;;;0.90;;
18649;SDS011;9454;53.516;10.478;2022-12-29T16:50:51;4.50;;;0.95;;
18649;SDS011;9454;53.516;10.478;2022-12-29T16:53:54;5.65;;;1.75;;
18649;SDS011;9454;53.516;10.478;2022-12-29T16:56:58;5.00;;;1.70;;
18649;SDS011;9454;53.516;10.478;2022-12-29T17:00:04;3.90;;;1.50;;
18649;SDS011;9454;53.516;10.478;2022-12-29T17:03:08;3.47;;;1.15;;
18649;SDS011;9454;53.516;10.478;2022-12-29T17:06:14;3.10;;;1.13;;
18649;SDS011;9454;53.516;10.478;2022-12-29T17:09:53;3.72;;;1.10;;
18649;SDS011;9454;53.516;10.478;2022-12-29T17:13:07;1.77;;;0.90;;
18649;SDS011;9454;53.516;10.478;2022-12-29T17:19:51;2.58;;;1.50;;
18649;SDS011;9454;53.516;10.478;2022-12-29T17:22:57;1.90;;;0.98;;
18649;SDS011;9454;53.516;10.478;2022-12-29T17:26:01;4.00;;;1.05;;
18649;SDS011;9454;53.516;10.478;2022-12-29T17:29:04;4.50;;;1.20;;
18649;SDS011;9454;53.516;10.478;2022-12-29T17:32:09;2.30;;;0.98;;
18649;SDS011;9454;53.516;10.478;2022-12-29T17:35:17;4.20;;;1.60;;
18649;SDS011;9454;53.516;10.478;2022-12-29T17:38:22;5.38;;;1.20;;
18649;SDS011;9454;53.516;10.478;2022-12-29T17:41:32;2.40;;;1.35;;
18649;SDS011;9454;53.516;10.478;2022-12-29T17:44:37;3.60;;;1.02;;
18649;SDS011;9454;53.516;10.478;2022-12-29T17:47:46;5.97;;;1.15;;
18649;SDS011;9454;53.516;10.478;2022-12-29T17:51:26;4.50;;;1.30;;
18649;SDS011;9454;53.516;10.478;2022-12-29T17:54:30;2.25;;;1.13;;
18649;SDS011;9454;53.516;10.478;2022-12-29T17:57:41;4.82;;;1.33;;
18649;SDS011;9454;53.516;10.478;2022-12-29T18:00:45;9.57;;;1.25;;
18649;SDS011;9454;53.516;10.478;2022-12-29T18:03:54;3.10;;;1.40;;
18649;SDS011;9454;53.516;10.478;2022-12-29T18:07:07;6.53;;;1.88;;
18649;SDS011;9454;53.516;10.478;2022-12-29T18:10:12;4.60;;;1.45;;
18649;SDS011;9454;53.516;10.478;2022-12-29T18:13:18;5.43;;;1.33;;
18649;SDS011;9454;53.516;10.478;2022-12-29T18:17:09;3.08;;;1.00;;
18649;SDS011;9454;53.516;10.478;2022-12-29T18:20:14;8.93;;;1.60;;
18649;SDS011;9454;53.516;10.478;2022-12-29T18:23:26;2.58;;;1.27;;
18649;SDS011;9454;53.516;10.478;2022-12-29T18:26:35;6.53;;;1.20;;
18649;SDS011;9454;53.516;10.478;2022-12-29T18:29:38;4.32;;;1.63;;
18649;SDS011;9454;53.516;10.478;2022-12-29T18:32:42;4.45;;;1.40;;
18649;SDS011;9454;53.516;10.478;2022-12-29T18:35:47;1.85;;;1.00;;
18649;SDS011;9454;53.516;10.478;2022-12-29T18:38:52;7.15;;;2.80;;
18649;SDS011;9454;53.516;10.478;2022-12-29T18:41:56;7.07;;;1.48;;
18649;SDS011;9454;53.516;10.478;2022-12-29T18:44:59;8.82;;;2.15;;
18649;SDS011;9454;53.516;10.478;2022-12-29T18:48:03;6.20;;;1.55;;
18649;SDS011;9454;53.516;10.478;2022-12-29T18:51:13;8.98;;;1.50;;
18649;SDS011;9454;53.516;10.478;2022-12-29T18:54:23;3.70;;;1.27;;
18649;SDS011;9454;53.516;10.478;2022-12-29T18:57:27;2.03;;;1.60;;
18649;SDS011;9454;53.516;10.478;2022-12-29T19:00:34;5.57;;;1.50;;
18649;SDS011;9454;53.516;10.478;2022-12-29T19:03:40;1.85;;;1.40;;
18649;SDS011;9454;53.516;10.478;2022-12-29T19:06:43;7.78;;;1.45;;
18649;SDS011;9454;53.516;10.478;2022-12-29T19:09:48;12.20;;;2.22;;
18649;SDS011;9454;53.516;10.478;2022-12-29T19:12:52;1.85;;;1.33;;
18649;SDS011;9454;53.516;10.478;2022-12-29T19:15:55;7.65;;;2.92;;
18649;SDS011;9454;53.516;10.478;2022-12-29T19:19:01;4.60;;;1.60;;
18649;SDS011;9454;53.516;10.478;2022-12-29T19:22:16;8.10;;;1.95;;
18649;SDS011;9454;53.516;10.478;2022-12-29T19:25:21;5.00;;;1.83;;
18649;SDS011;9454;53.516;10.478;2022-12-29T19:28:25;8.27;;;2.17;;
18649;SDS011;9454;53.516;10.478;2022-12-29T19:31:29;3.30;;;1.65;;
18649;SDS011;9454;53.516;10.478;2022-12-29T19:34:32;31.77;;;2.33;;
18649;SDS011;9454;53.516;10.478;2022-12-29T19:37:36;5.30;;;1.33;;
18649;SDS011;9454;53.516;10.478;2022-12-29T19:40:42;7.45;;;1.35;;
18649;SDS011;9454;53.516;10.478;2022-12-29T19:43:45;5.10;;;1.85;;
18649;SDS011;9454;53.516;10.478;2022-12-29T19:46:51;5.32;;;2.10;;
18649;SDS011;9454;53.516;10.478;2022-12-29T19:49:55;8.80;;;1.98;;
18649;SDS011;9454;53.516;10.478;2022-12-29T19:53:17;5.07;;;1.73;;
18649;SDS011;9454;53.516;10.478;2022-12-29T19:56:23;3.13;;;1.42;;
18649;SDS011;9454;53.516;10.478;2022-12-29T19:59:26;4.05;;;2.00;;
18649;SDS011;9454;53.516;10.478;2022-12-29T20:02:31;5.88;;;1.27;;
18649;SDS011;9454;53.516;10.478;2022-12-29T20:05:35;3.47;;;1.10;;
18649;SDS011;9454;53.516;10.478;2022-12-29T20:08:39;1.67;;;0.98;;
18649;SDS011;9454;53.516;10.478;2022-12-29T20:11:44;4.45;;;0.80;;
18649;SDS011;9454;53.516;10.478;2022-12-29T20:14:47;1.85;;;1.02;;
18649;SDS011;9454;53.516;10.478;2022-12-29T20:17:50;2.70;;;0.95;;
18649;SDS011;9454;53.516;10.478;2022-12-29T20:21:14;2.20;;;0.80;;